sensor_id;sensor_type;location;lat;lon;timestamp;pressure;altitude;pressure_sealevel;temperature;humidity
57074;BME280;69035;54.392;18.574;2023-04-28T00:00:13;101720.75;;;5.42;55.70
57074;BME280;69035;54.392;18.574;2023-04-28T00:03:02;101717.25;;;5.41;56.39
57074;BME280;69035;54.392;18.574;2023-04-28T00:05:31;101720.69;;;5.39;55.95
57074;BME280;69035;54.392;18.574;2023-04-28T00:08:00;101717.13;;;5.37;55.70
57074;BME280;69035;54.392;18.574;2023-04-28T00:10:30;101720.50;;;5.33;55.45
57074;BME280;69035;54.392;18.574;2023-04-28T00:13:00;101727.41;;;5.31;55.36
57074;BME280;69035;54.392;18.574;2023-04-28T00:15:29;101727.28;;;5.26;56.07
57074;BME280;69035;54.392;18.574;2023-04-28T00:17:58;101725.50;;;5.25;56.33
57074;BME280;69035;54.392;18.574;2023-04-28T00:20:27;101722.78;;;5.20;56.03
57074;BME280;69035;54.392;18.574;2023-04-28T00:22:55;101719.25;;;5.18;56.12
57074;BME280;69035;54.392;18.574;2023-04-28T00:25:24;101714.78;;;5.13;56.42
57074;BME280;69035;54.392;18.574;2023-04-28T00:27:53;101708.50;;;5.06;56.74
57074;BME280;69035;54.392;18.574;2023-04-28T00:30:23;101725.25;;;5.14;57.15
57074;BME280;69035;54.392;18.574;2023-04-28T00:32:52;101728.56;;;5.09;58.12
57074;BME280;69035;54.392;18.574;2023-04-28T00:35:21;101735.41;;;5.05;56.52
57074;BME280;69035;54.392;18.574;2023-04-28T00:37:49;101738.94;;;5.07;56.50
57074;BME280;69035;54.392;18.574;2023-04-28T00:40:18;101733.63;;;5.02;56.77
57074;BME280;69035;54.392;18.574;2023-04-28T00:42:47;101736.06;;;4.98;56.24
57074;BME280;69035;54.392;18.574;2023-04-28T00:45:16;101729.94;;;4.96;57.60
57074;BME280;69035;54.392;18.574;2023-04-28T00:47:46;101735.19;;;4.97;56.08
57074;BME280;69035;54.392;18.574;2023-04-28T00:50:15;101731.66;;;4.95;56.52
57074;BME280;69035;54.392;18.574;2023-04-28T00:52:44;101727.38;;;4.97;57.18
57074;BME280;69035;54.392;18.574;2023-04-28T00:55:16;101731.72;;;4.97;56.60
57074;BME280;69035;54.392;18.574;2023-04-28T00:57:44;101722.13;;;4.96;57.61
57074;BME280;69035;54.392;18.574;2023-04-28T01:00:14;101727.28;;;4.94;57.66
57074;BME280;69035;54.392;18.574;2023-04-28T01:02:43;101729.81;;;4.91;56.70
57074;BME280;69035;54.392;18.574;2023-04-28T01:05:14;101721.91;;;4.88;57.96
57074;BME280;69035;54.392;18.574;2023-04-28T01:07:45;101728.75;;;4.84;58.02
57074;BME280;69035;54.392;18.574;2023-04-28T01:10:13;101722.59;;;4.81;58.22
57074;BME280;69035;54.392;18.574;2023-04-28T01:12:42;101730.41;;;4.81;57.45
57074;BME280;69035;54.392;18.574;2023-04-28T01:15:15;101724.28;;;4.80;57.55
57074;BME280;69035;54.392;18.574;2023-04-28T01:17:46;101706.59;;;4.68;57.96
57074;BME280;69035;54.392;18.574;2023-04-28T01:20:17;101720.56;;;4.70;58.24
57074;BME280;69035;54.392;18.574;2023-04-28T01:22:46;101727.56;;;4.73;58.79
57074;BME280;69035;54.392;18.574;2023-04-28T01:25:16;101737.22;;;4.77;57.74
57074;BME280;69035;54.392;18.574;2023-04-28T01:27:45;101729.31;;;4.74;58.96
57074;BME280;69035;54.392;18.574;2023-04-28T01:30:14;101721.38;;;4.69;58.77
57074;BME280;69035;54.392;18.574;2023-04-28T01:32:43;101723.94;;;4.68;59.35
57074;BME280;69035;54.392;18.574;2023-04-28T01:35:13;101734.28;;;4.65;58.94
57074;BME280;69035;54.392;18.574;2023-04-28T01:37:41;101733.25;;;4.60;59.50
57074;BME280;69035;54.392;18.574;2023-04-28T01:40:11;101731.47;;;4.59;58.66
57074;BME280;69035;54.392;18.574;2023-04-28T01:42:42;101733.22;;;4.58;58.97
57074;BME280;69035;54.392;18.574;2023-04-28T01:45:11;101732.25;;;4.54;59.55
57074;BME280;69035;54.392;18.574;2023-04-28T01:47:39;101738.25;;;4.52;60.20
57074;BME280;69035;54.392;18.574;2023-04-28T01:50:09;101733.91;;;4.52;60.13
57074;BME280;69035;54.392;18.574;2023-04-28T01:52:38;101729.56;;;4.51;58.87
57074;BME280;69035;54.392;18.574;2023-04-28T01:55:07;101708.41;;;4.41;60.15
57074;BME280;69035;54.392;18.574;2023-04-28T01:57:37;101725.97;;;4.48;59.66
57074;BME280;69035;54.392;18.574;2023-04-28T02:00:09;101721.84;;;4.54;59.93
57074;BME280;69035;54.392;18.574;2023-04-28T02:02:47;101725.19;;;4.50;59.37
57074;BME280;69035;54.392;18.574;2023-04-28T02:05:16;101729.47;;;4.50;59.93
57074;BME280;69035;54.392;18.574;2023-04-28T02:07:47;101724.22;;;4.48;59.64
57074;BME280;69035;54.392;18.574;2023-04-28T02:10:16;101722.44;;;4.46;60.16
57074;BME280;69035;54.392;18.574;2023-04-28T02:12:44;101731.94;;;4.45;60.01
57074;BME280;69035;54.392;18.574;2023-04-28T02:15:15;101732.81;;;4.44;59.74
57074;BME280;69035;54.392;18.574;2023-04-28T02:17:43;101732.78;;;4.43;60.36
57074;BME280;69035;54.392;18.574;2023-04-28T02:20:12;101726.63;;;4.41;61.05
57074;BME280;69035;54.392;18.574;2023-04-28T02:22:41;101732.78;;;4.43;59.93
57074;BME280;69035;54.392;18.574;2023-04-28T02:25:10;101737.16;;;4.45;60.10
57074;BME280;69035;54.392;18.574;2023-04-28T02:27:39;101732.81;;;4.44;59.94
57074;BME280;69035;54.392;18.574;2023-04-28T02:30:09;101728.31;;;4.39;60.99
57074;BME280;69035;54.392;18.574;2023-04-28T02:32:40;101730.16;;;4.43;60.54
57074;BME280;69035;54.392;18.574;2023-04-28T02:35:09;101726.47;;;4.36;61.61
57074;BME280;69035;54.392;18.574;2023-04-28T02:37:38;101737.91;;;4.41;61.16
57074;BME280;69035;54.392;18.574;2023-04-28T02:40:08;101733.50;;;4.39;61.36
57074;BME280;69035;54.392;18.574;2023-04-28T02:42:36;101725.44;;;4.31;61.34
57074;BME280;69035;54.392;18.574;2023-04-28T02:45:06;101738.59;;;4.34;61.13
57074;BME280;69035;54.392;18.574;2023-04-28T02:47:34;101736.81;;;4.33;61.10
57074;BME280;69035;54.392;18.574;2023-04-28T02:50:06;101739.53;;;4.38;60.75
57074;BME280;69035;54.392;18.574;2023-04-28T02:52:37;101742.06;;;4.34;61.85
57074;BME280;69035;54.392;18.574;2023-04-28T02:55:06;101739.41;;;4.33;62.35
57074;BME280;69035;54.392;18.574;2023-04-28T02:57:35;101719.00;;;4.18;61.87
57074;BME280;69035;54.392;18.574;2023-04-28T03:00:05;101738.41;;;4.29;62.51
57074;BME280;69035;54.392;18.574;2023-04-28T03:02:42;101739.38;;;4.31;60.81
57074;BME280;69035;54.392;18.574;2023-04-28T03:05:14;101741.91;;;4.30;62.24
57074;BME280;69035;54.392;18.574;2023-04-28T03:07:43;101734.91;;;4.27;62.60
57074;BME280;69035;54.392;18.574;2023-04-28T03:10:12;101747.88;;;4.26;62.24
57074;BME280;69035;54.392;18.574;2023-04-28T03:12:41;101723.41;;;4.21;61.66
57074;BME280;69035;54.392;18.574;2023-04-28T03:15:10;101721.53;;;4.16;62.36
57074;BME280;69035;54.392;18.574;2023-04-28T03:17:40;101730.38;;;4.22;62.25
57074;BME280;69035;54.392;18.574;2023-04-28T03:20:10;101718.72;;;4.09;63.35
57074;BME280;69035;54.392;18.574;2023-04-28T03:22:41;101716.00;;;4.06;63.00
57074;BME280;69035;54.392;18.574;2023-04-28T03:25:09;101738.00;;;4.15;62.73
57074;BME280;69035;54.392;18.574;2023-04-28T03:27:47;101723.97;;;4.10;62.07
57074;BME280;69035;54.392;18.574;2023-04-28T03:30:16;101713.47;;;4.07;62.35
57074;BME280;69035;54.392;18.574;2023-04-28T03:32:45;101723.09;;;4.10;62.90
57074;BME280;69035;54.392;18.574;2023-04-28T03:35:15;101731.03;;;4.14;61.89
57074;BME280;69035;54.392;18.574;2023-04-28T03:37:45;101730.25;;;4.17;61.78
57074;BME280;69035;54.392;18.574;2023-04-28T03:40:15;101729.34;;;4.16;62.94
57074;BME280;69035;54.392;18.574;2023-04-28T03:43:16;101721.63;;;4.18;63.38
57074;BME280;69035;54.392;18.574;2023-04-28T03:46:05;101721.69;;;4.21;62.55
57074;BME280;69035;54.392;18.574;2023-04-28T03:48:33;101734.28;;;4.36;62.70
57074;BME280;69035;54.392;18.574;2023-04-28T03:51:03;101723.75;;;4.31;62.92
57074;BME280;69035;54.392;18.574;2023-04-28T03:53:33;101744.22;;;4.49;62.52
57074;BME280;69035;54.392;18.574;2023-04-28T03:56:02;101739.19;;;4.56;61.78
57074;BME280;69035;54.392;18.574;2023-04-28T03:58:31;101740.19;;;4.59;61.57
57074;BME280;69035;54.392;18.574;2023-04-28T04:01:00;101749.91;;;4.65;62.15
57074;BME280;69035;54.392;18.574;2023-04-28T04:03:29;101742.34;;;4.74;61.53
57074;BME280;69035;54.392;18.574;2023-04-28T04:05:58;101743.50;;;4.84;61.51
57074;BME280;69035;54.392;18.574;2023-04-28T04:08:27;101733.84;;;4.80;62.18
57074;BME280;69035;54.392;18.574;2023-04-28T04:10:58;101728.75;;;4.84;61.99
57074;BME280;69035;54.392;18.574;2023-04-28T04:13:26;101737.59;;;4.89;62.08
57074;BME280;69035;54.392;18.574;2023-04-28T04:15:56;101732.47;;;4.93;61.03
57074;BME280;69035;54.392;18.574;2023-04-28T04:18:25;101738.03;;;5.06;61.37
57074;BME280;69035;54.392;18.574;2023-04-28T04:21:13;101740.97;;;5.17;60.44
57074;BME280;69035;54.392;18.574;2023-04-28T04:23:41;101764.00;;;5.35;60.07
57074;BME280;69035;54.392;18.574;2023-04-28T04:26:13;101750.97;;;5.35;59.90
57074;BME280;69035;54.392;18.574;2023-04-28T04:28:41;101749.44;;;5.42;60.79
57074;BME280;69035;54.392;18.574;2023-04-28T04:31:10;101752.28;;;5.51;59.99
57074;BME280;69035;54.392;18.574;2023-04-28T04:33:38;101758.50;;;5.56;59.55
57074;BME280;69035;54.392;18.574;2023-04-28T04:36:07;101745.69;;;5.66;59.54
57074;BME280;69035;54.392;18.574;2023-04-28T04:38:36;101750.25;;;5.74;59.50
57074;BME280;69035;54.392;18.574;2023-04-28T04:41:16;101753.94;;;5.83;59.27
57074;BME280;69035;54.392;18.574;2023-04-28T04:43:48;101747.03;;;5.85;59.66
57074;BME280;69035;54.392;18.574;2023-04-28T04:46:17;101756.78;;;5.93;59.58
57074;BME280;69035;54.392;18.574;2023-04-28T04:48:45;101754.41;;;6.01;59.54
57074;BME280;69035;54.392;18.574;2023-04-28T04:51:15;101752.06;;;6.12;59.09
57074;BME280;69035;54.392;18.574;2023-04-28T04:53:44;101754.94;;;6.24;58.80
57074;BME280;69035;54.392;18.574;2023-04-28T04:56:13;101756.91;;;6.35;58.63
57074;BME280;69035;54.392;18.574;2023-04-28T04:58:43;101755.50;;;6.49;58.21
57074;BME280;69035;54.392;18.574;2023-04-28T05:01:27;101762.88;;;6.67;57.78
57074;BME280;69035;54.392;18.574;2023-04-28T05:03:57;101762.28;;;6.82;58.09
57074;BME280;69035;54.392;18.574;2023-04-28T05:06:26;101768.56;;;6.90;57.81
57074;BME280;69035;54.392;18.574;2023-04-28T05:08:55;101753.72;;;6.89;57.62
57074;BME280;69035;54.392;18.574;2023-04-28T05:11:25;101774.09;;;7.06;57.22
57074;BME280;69035;54.392;18.574;2023-04-28T05:13:56;101753.22;;;7.09;57.20
57074;BME280;69035;54.392;18.574;2023-04-28T05:16:24;101760.44;;;7.22;57.31
57074;BME280;69035;54.392;18.574;2023-04-28T05:18:53;101769.59;;;7.44;56.96
57074;BME280;69035;54.392;18.574;2023-04-28T05:21:22;101768.19;;;7.62;56.36
57074;BME280;69035;54.392;18.574;2023-04-28T05:23:50;101760.47;;;7.71;56.65
57074;BME280;69035;54.392;18.574;2023-04-28T05:26:20;101775.53;;;7.86;56.35
57074;BME280;69035;54.392;18.574;2023-04-28T05:28:52;101762.56;;;7.91;55.71
57074;BME280;69035;54.392;18.574;2023-04-28T05:31:22;101762.63;;;7.95;55.85
57074;BME280;69035;54.392;18.574;2023-04-28T05:33:52;101766.28;;;8.07;56.08
57074;BME280;69035;54.392;18.574;2023-04-28T05:36:20;101772.66;;;8.24;55.25
57074;BME280;69035;54.392;18.574;2023-04-28T05:38:49;101766.63;;;8.30;54.90
57074;BME280;69035;54.392;18.574;2023-04-28T05:41:18;101754.47;;;8.33;54.71
57074;BME280;69035;54.392;18.574;2023-04-28T05:43:47;101755.53;;;8.45;55.04
57074;BME280;69035;54.392;18.574;2023-04-28T05:46:18;101761.91;;;8.62;54.41
57074;BME280;69035;54.392;18.574;2023-04-28T05:49:00;101732.19;;;8.63;55.10
57074;BME280;69035;54.392;18.574;2023-04-28T05:51:36;101773.69;;;9.00;54.49
57074;BME280;69035;54.392;18.574;2023-04-28T05:54:04;101775.66;;;9.18;54.08
57074;BME280;69035;54.392;18.574;2023-04-28T05:56:40;101773.22;;;9.35;54.04
57074;BME280;69035;54.392;18.574;2023-04-28T05:59:08;101775.13;;;9.50;53.34
57074;BME280;69035;54.392;18.574;2023-04-28T06:01:37;101768.13;;;9.52;53.44
57074;BME280;69035;54.392;18.574;2023-04-28T06:04:07;101761.22;;;9.58;52.80
57074;BME280;69035;54.392;18.574;2023-04-28T06:06:36;101773.50;;;9.63;53.51
57074;BME280;69035;54.392;18.574;2023-04-28T06:09:05;101763.94;;;9.69;52.78
57074;BME280;69035;54.392;18.574;2023-04-28T06:11:34;101766.56;;;9.71;51.42
57074;BME280;69035;54.392;18.574;2023-04-28T06:14:02;101763.16;;;9.81;52.61
57074;BME280;69035;54.392;18.574;2023-04-28T06:16:31;101775.56;;;9.96;51.81
57074;BME280;69035;54.392;18.574;2023-04-28T06:19:01;101773.81;;;9.98;51.82
57074;BME280;69035;54.392;18.574;2023-04-28T06:21:31;101773.94;;;10.14;50.79
57074;BME280;69035;54.392;18.574;2023-04-28T06:23:59;101769.56;;;10.16;51.19
57074;BME280;69035;54.392;18.574;2023-04-28T06:26:30;101773.19;;;10.33;50.77
57074;BME280;69035;54.392;18.574;2023-04-28T06:28:59;101753.13;;;10.40;51.08
57074;BME280;69035;54.392;18.574;2023-04-28T06:31:29;101768.09;;;10.58;49.60
57074;BME280;69035;54.392;18.574;2023-04-28T06:33:57;101764.63;;;10.63;50.60
57074;BME280;69035;54.392;18.574;2023-04-28T06:36:27;101768.16;;;10.70;50.39
57074;BME280;69035;54.392;18.574;2023-04-28T06:38:57;101755.84;;;10.61;49.37
57074;BME280;69035;54.392;18.574;2023-04-28T06:41:26;101745.34;;;10.64;49.23
57074;BME280;69035;54.392;18.574;2023-04-28T06:43:56;101753.28;;;10.80;49.40
57074;BME280;69035;54.392;18.574;2023-04-28T06:46:28;101749.81;;;10.84;48.63
57074;BME280;69035;54.392;18.574;2023-04-28T06:48:57;101743.69;;;10.87;48.81
57074;BME280;69035;54.392;18.574;2023-04-28T06:51:26;101740.22;;;10.97;48.29
57074;BME280;69035;54.392;18.574;2023-04-28T06:53:57;101759.56;;;11.16;47.16
57074;BME280;69035;54.392;18.574;2023-04-28T06:56:26;101761.34;;;11.29;47.21
57074;BME280;69035;54.392;18.574;2023-04-28T06:58:55;101759.59;;;11.30;47.12
57074;BME280;69035;54.392;18.574;2023-04-28T07:01:25;101750.81;;;11.29;45.82
57074;BME280;69035;54.392;18.574;2023-04-28T07:03:53;101760.50;;;11.47;47.36
57074;BME280;69035;54.392;18.574;2023-04-28T07:06:22;101744.72;;;11.50;46.38
57074;BME280;69035;54.392;18.574;2023-04-28T07:08:53;101738.59;;;11.70;46.54
57074;BME280;69035;54.392;18.574;2023-04-28T07:11:24;101735.94;;;11.79;45.81
57074;BME280;69035;54.392;18.574;2023-04-28T07:13:52;101730.66;;;11.78;43.77
57074;BME280;69035;54.392;18.574;2023-04-28T07:16:21;101724.53;;;11.93;45.37
57074;BME280;69035;54.392;18.574;2023-04-28T07:18:49;101734.19;;;12.09;44.97
57074;BME280;69035;54.392;18.574;2023-04-28T07:21:18;101737.72;;;12.19;43.56
57074;BME280;69035;54.392;18.574;2023-04-28T07:23:47;101737.69;;;12.28;41.15
57074;BME280;69035;54.392;18.574;2023-04-28T07:26:16;101732.38;;;12.36;43.38
57074;BME280;69035;54.392;18.574;2023-04-28T07:28:46;101723.59;;;12.40;43.63
57074;BME280;69035;54.392;18.574;2023-04-28T07:31:15;101724.44;;;12.50;44.16
57074;BME280;69035;54.392;18.574;2023-04-28T07:33:43;101723.56;;;12.55;42.77
57074;BME280;69035;54.392;18.574;2023-04-28T07:36:12;101744.59;;;12.65;41.88
57074;BME280;69035;54.392;18.574;2023-04-28T07:38:41;101718.28;;;12.52;41.70
57074;BME280;69035;54.392;18.574;2023-04-28T07:41:10;101729.66;;;12.64;41.87
57074;BME280;69035;54.392;18.574;2023-04-28T07:43:39;101719.09;;;12.65;42.31
57074;BME280;69035;54.392;18.574;2023-04-28T07:46:11;101745.41;;;12.84;41.55
57074;BME280;69035;54.392;18.574;2023-04-28T07:48:39;101732.13;;;13.01;41.34
57074;BME280;69035;54.392;18.574;2023-04-28T07:51:08;101734.66;;;13.24;40.83
57074;BME280;69035;54.392;18.574;2023-04-28T07:53:37;101729.25;;;13.41;40.65
57074;BME280;69035;54.392;18.574;2023-04-28T07:56:06;101737.09;;;13.55;40.19
57074;BME280;69035;54.392;18.574;2023-04-28T07:58:35;101726.66;;;13.38;39.79
57074;BME280;69035;54.392;18.574;2023-04-28T08:01:04;101723.16;;;13.34;39.89
57074;BME280;69035;54.392;18.574;2023-04-28T08:03:34;101723.16;;;13.31;39.87
57074;BME280;69035;54.392;18.574;2023-04-28T08:06:03;101723.31;;;13.00;38.42
57074;BME280;69035;54.392;18.574;2023-04-28T08:08:32;101732.13;;;13.04;39.05
57074;BME280;69035;54.392;18.574;2023-04-28T08:11:01;101730.38;;;13.01;39.12
57074;BME280;69035;54.392;18.574;2023-04-28T08:13:30;101726.78;;;13.13;39.54
57074;BME280;69035;54.392;18.574;2023-04-28T08:15:59;101727.63;;;13.21;38.93
57074;BME280;69035;54.392;18.574;2023-04-28T08:18:28;101719.75;;;13.15;39.02
57074;BME280;69035;54.392;18.574;2023-04-28T08:20:59;101734.69;;;13.18;38.72
57074;BME280;69035;54.392;18.574;2023-04-28T08:23:27;101729.38;;;13.24;36.87
57074;BME280;69035;54.392;18.574;2023-04-28T08:25:58;101730.16;;;13.32;37.52
57074;BME280;69035;54.392;18.574;2023-04-28T08:28:27;101727.56;;;13.28;38.19
57074;BME280;69035;54.392;18.574;2023-04-28T08:30:56;101722.25;;;13.31;38.23
57074;BME280;69035;54.392;18.574;2023-04-28T08:33:24;101723.16;;;13.30;37.32
57074;BME280;69035;54.392;18.574;2023-04-28T08:35:54;101720.56;;;13.27;37.48
57074;BME280;69035;54.392;18.574;2023-04-28T08:38:25;101728.44;;;13.30;37.57
57074;BME280;69035;54.392;18.574;2023-04-28T08:40:55;101719.63;;;13.29;37.83
57074;BME280;69035;54.392;18.574;2023-04-28T08:43:25;101716.97;;;13.38;37.52
57074;BME280;69035;54.392;18.574;2023-04-28T08:45:55;101709.88;;;13.43;37.06
57074;BME280;69035;54.392;18.574;2023-04-28T08:48:24;101708.03;;;13.56;37.11
57074;BME280;69035;54.392;18.574;2023-04-28T08:50:55;101712.38;;;13.64;36.34
57074;BME280;69035;54.392;18.574;2023-04-28T08:53:26;101707.16;;;13.57;35.94
57074;BME280;69035;54.392;18.574;2023-04-28T08:55:57;101697.41;;;13.63;36.14
57074;BME280;69035;54.392;18.574;2023-04-28T08:58:26;101699.13;;;13.67;36.08
57074;BME280;69035;54.392;18.574;2023-04-28T09:00:55;101703.50;;;13.71;36.66
57074;BME280;69035;54.392;18.574;2023-04-28T09:03:25;101702.59;;;13.76;36.38
57074;BME280;69035;54.392;18.574;2023-04-28T09:05:54;101708.75;;;13.75;36.29
57074;BME280;69035;54.392;18.574;2023-04-28T09:08:23;101713.09;;;13.83;36.46
57074;BME280;69035;54.392;18.574;2023-04-28T09:11:07;101699.03;;;13.81;35.67
57074;BME280;69035;54.392;18.574;2023-04-28T09:13:36;101704.34;;;13.77;36.22
57074;BME280;69035;54.392;18.574;2023-04-28T09:16:06;101700.84;;;13.74;36.24
57074;BME280;69035;54.392;18.574;2023-04-28T09:18:35;101702.56;;;13.80;36.23
57074;BME280;69035;54.392;18.574;2023-04-28T09:21:06;101702.50;;;13.86;36.17
57074;BME280;69035;54.392;18.574;2023-04-28T09:23:35;101704.13;;;13.98;36.14
57074;BME280;69035;54.392;18.574;2023-04-28T09:26:15;101706.69;;;14.08;35.68
57074;BME280;69035;54.392;18.574;2023-04-28T09:28:44;101714.47;;;14.21;36.04
57074;BME280;69035;54.392;18.574;2023-04-28T09:31:22;101699.56;;;14.15;34.75
57074;BME280;69035;54.392;18.574;2023-04-28T09:33:57;101704.03;;;14.08;35.83
57074;BME280;69035;54.392;18.574;2023-04-28T09:36:26;101703.94;;;14.18;36.80
57074;BME280;69035;54.392;18.574;2023-04-28T09:38:57;101705.63;;;14.23;36.44
57074;BME280;69035;54.392;18.574;2023-04-28T09:41:36;101709.91;;;14.35;36.37
57074;BME280;69035;54.392;18.574;2023-04-28T09:44:14;101715.16;;;14.38;36.13
57074;BME280;69035;54.392;18.574;2023-04-28T09:46:45;101699.44;;;14.27;36.76
57074;BME280;69035;54.392;18.574;2023-04-28T09:49:13;101713.47;;;14.31;36.44
57074;BME280;69035;54.392;18.574;2023-04-28T09:51:43;101705.63;;;14.23;34.06
57074;BME280;69035;54.392;18.574;2023-04-28T09:54:12;101705.50;;;14.36;36.54
57074;BME280;69035;54.392;18.574;2023-04-28T09:56:43;101697.47;;;14.45;34.82
57074;BME280;69035;54.392;18.574;2023-04-28T09:59:13;101692.38;;;14.28;34.80
57074;BME280;69035;54.392;18.574;2023-04-28T10:01:42;101698.50;;;14.32;34.74
57074;BME280;69035;54.392;18.574;2023-04-28T10:04:13;101688.63;;;14.47;35.05
57074;BME280;69035;54.392;18.574;2023-04-28T10:06:43;101684.38;;;15.03;34.02
57074;BME280;69035;54.392;18.574;2023-04-28T10:09:11;101675.13;;;15.31;33.38
57074;BME280;69035;54.392;18.574;2023-04-28T10:11:42;101665.44;;;15.83;33.17
57074;BME280;69035;54.392;18.574;2023-04-28T10:14:11;101666.03;;;15.99;33.13
57074;BME280;69035;54.392;18.574;2023-04-28T10:16:40;101660.13;;;15.85;32.91
57074;BME280;69035;54.392;18.574;2023-04-28T10:19:10;101654.44;;;15.54;33.04
57074;BME280;69035;54.392;18.574;2023-04-28T10:21:43;101657.50;;;15.29;32.96
57074;BME280;69035;54.392;18.574;2023-04-28T10:24:18;101664.81;;;15.14;33.79
57074;BME280;69035;54.392;18.574;2023-04-28T10:27:13;101667.69;;;14.97;33.31
57074;BME280;69035;54.392;18.574;2023-04-28T10:29:42;101667.31;;;15.22;34.08
57074;BME280;69035;54.392;18.574;2023-04-28T10:32:17;101655.41;;;15.49;32.74
57074;BME280;69035;54.392;18.574;2023-04-28T10:34:47;101661.59;;;15.48;32.33
57074;BME280;69035;54.392;18.574;2023-04-28T10:37:16;101656.13;;;15.58;32.16
57074;BME280;69035;54.392;18.574;2023-04-28T10:43:04;101656.84;;;16.60;31.56
57074;BME280;69035;54.392;18.574;2023-04-28T10:46:00;101666.13;;;16.81;30.42
57074;BME280;69035;54.392;18.574;2023-04-28T10:48:56;101659.84;;;16.44;29.84
57074;BME280;69035;54.392;18.574;2023-04-28T10:51:28;101661.75;;;15.92;31.22
57074;BME280;69035;54.392;18.574;2023-04-28T10:54:22;101664.63;;;15.77;31.88
57074;BME280;69035;54.392;18.574;2023-04-28T10:57:20;101664.59;;;15.83;31.34
57074;BME280;69035;54.392;18.574;2023-04-28T10:59:51;101661.47;;;15.56;32.71
57074;BME280;69035;54.392;18.574;2023-04-28T11:02:40;101660.56;;;15.57;32.72
57074;BME280;69035;54.392;18.574;2023-04-28T11:05:16;101654.44;;;15.54;32.13
57074;BME280;69035;54.392;18.574;2023-04-28T11:11:15;101653.63;;;15.50;31.05
57074;BME280;69035;54.392;18.574;2023-04-28T11:13:44;101658.66;;;15.67;31.91
57074;BME280;69035;54.392;18.574;2023-04-28T11:16:17;101646.13;;;15.74;32.15
57074;BME280;69035;54.392;18.574;2023-04-28T11:18:54;101653.91;;;15.86;31.80
57074;BME280;69035;54.392;18.574;2023-04-28T11:21:25;101651.94;;;15.96;31.75
57074;BME280;69035;54.392;18.574;2023-04-28T11:23:56;101648.22;;;16.06;32.39
57074;BME280;69035;54.392;18.574;2023-04-28T11:26:27;101666.75;;;16.09;32.13
57074;BME280;69035;54.392;18.574;2023-04-28T11:28:56;101659.25;;;16.30;31.62
57074;BME280;69035;54.392;18.574;2023-04-28T11:31:27;101655.22;;;16.52;31.46
57074;BME280;69035;54.392;18.574;2023-04-28T11:33:58;101649.72;;;16.63;31.14
57074;BME280;69035;54.392;18.574;2023-04-28T11:36:34;101657.34;;;16.77;31.02
57074;BME280;69035;54.392;18.574;2023-04-28T11:39:04;101653.81;;;16.78;31.38
57074;BME280;69035;54.392;18.574;2023-04-28T11:41:35;101648.94;;;16.58;31.21
57074;BME280;69035;54.392;18.574;2023-04-28T11:44:10;101653.69;;;16.42;29.14
57074;BME280;69035;54.392;18.574;2023-04-28T11:46:47;101644.47;;;16.18;30.04
57074;BME280;69035;54.392;18.574;2023-04-28T11:49:20;101645.75;;;16.41;31.17
57074;BME280;69035;54.392;18.574;2023-04-28T11:51:51;101645.41;;;16.58;31.20
57074;BME280;69035;54.392;18.574;2023-04-28T11:54:22;101645.09;;;16.71;30.68
57074;BME280;69035;54.392;18.574;2023-04-28T11:56:52;101644.72;;;16.90;30.54
57074;BME280;69035;54.392;18.574;2023-04-28T11:59:23;101634.78;;;17.36;30.57
57074;BME280;69035;54.392;18.574;2023-04-28T12:01:56;101639.06;;;18.09;29.33
57074;BME280;69035;54.392;18.574;2023-04-28T12:04:27;101635.66;;;18.35;28.98
57074;BME280;69035;54.392;18.574;2023-04-28T12:07:01;101631.44;;;18.28;28.16
57074;BME280;69035;54.392;18.574;2023-04-28T12:09:31;101631.41;;;17.97;29.63
57074;BME280;69035;54.392;18.574;2023-04-28T12:12:01;101631.75;;;18.16;28.71
57074;BME280;69035;54.392;18.574;2023-04-28T12:14:32;101626.38;;;17.86;28.50
57074;BME280;69035;54.392;18.574;2023-04-28T12:17:03;101624.59;;;17.53;28.57
57074;BME280;69035;54.392;18.574;2023-04-28T12:19:42;101615.56;;;17.24;27.50
57074;BME280;69035;54.392;18.574;2023-04-28T12:22:12;101624.97;;;17.02;29.58
57074;BME280;69035;54.392;18.574;2023-04-28T12:24:43;101615.06;;;17.08;29.83
57074;BME280;69035;54.392;18.574;2023-04-28T12:27:14;101616.88;;;17.42;29.75
57074;BME280;69035;54.392;18.574;2023-04-28T12:29:43;101618.13;;;17.64;29.24
57074;BME280;69035;54.392;18.574;2023-04-28T12:32:15;101614.31;;;18.05;29.37
57074;BME280;69035;54.392;18.574;2023-04-28T12:34:45;101612.03;;;17.93;28.99
57074;BME280;69035;54.392;18.574;2023-04-28T12:37:14;101607.47;;;17.64;28.77
57074;BME280;69035;54.392;18.574;2023-04-28T12:39:43;101614.00;;;17.50;29.15
57074;BME280;69035;54.392;18.574;2023-04-28T12:42:12;101611.81;;;17.33;29.37
57074;BME280;69035;54.392;18.574;2023-04-28T12:44:41;101611.59;;;17.41;29.65
57074;BME280;69035;54.392;18.574;2023-04-28T12:47:10;101601.81;;;17.43;29.85
57074;BME280;69035;54.392;18.574;2023-04-28T12:49:40;101609.91;;;17.71;30.20
57074;BME280;69035;54.392;18.574;2023-04-28T12:52:09;101602.00;;;18.33;29.49
57074;BME280;69035;54.392;18.574;2023-04-28T12:54:38;101598.78;;;18.79;28.61
57074;BME280;69035;54.392;18.574;2023-04-28T12:57:14;101595.13;;;18.84;28.62
57074;BME280;69035;54.392;18.574;2023-04-28T12:59:43;101590.22;;;18.71;28.53
57074;BME280;69035;54.392;18.574;2023-04-28T13:02:13;101589.88;;;18.54;28.65
57074;BME280;69035;54.392;18.574;2023-04-28T13:04:43;101592.72;;;18.18;28.35
57074;BME280;69035;54.392;18.574;2023-04-28T13:07:14;101588.19;;;17.90;28.83
57074;BME280;69035;54.392;18.574;2023-04-28T13:09:43;101599.69;;;17.90;28.64